sensor_id;sensor_type;location;lat;lon;timestamp;P1;durP1;ratioP1;P2;durP2;ratioP2
10387;SDS011;5240;51.128;4.566;2023-04-15T00:02:19;7.10;;;4.50;;
10387;SDS011;5240;51.128;4.566;2023-04-15T00:04:46;6.97;;;4.50;;
10387;SDS011;5240;51.128;4.566;2023-04-15T00:07:15;6.15;;;4.25;;
10387;SDS011;5240;51.128;4.566;2023-04-15T00:09:42;8.90;;;4.30;;
10387;SDS011;5240;51.128;4.566;2023-04-15T00:12:10;6.55;;;4.00;;
10387;SDS011;5240;51.128;4.566;2023-04-15T00:14:37;7.68;;;4.30;;
10387;SDS011;5240;51.128;4.566;2023-04-15T00:17:04;7.03;;;4.40;;
10387;SDS011;5240;51.128;4.566;2023-04-15T00:19:32;6.68;;;4.30;;
10387;SDS011;5240;51.128;4.566;2023-04-15T00:21:59;6.78;;;4.20;;
10387;SDS011;5240;51.128;4.566;2023-04-15T00:24:27;7.32;;;4.20;;
10387;SDS011;5240;51.128;4.566;2023-04-15T00:26:55;7.68;;;4.30;;
10387;SDS011;5240;51.128;4.566;2023-04-15T00:29:22;6.55;;;4.03;;
10387;SDS011;5240;51.128;4.566;2023-04-15T00:31:50;5.38;;;4.18;;
10387;SDS011;5240;51.128;4.566;2023-04-15T00:34:17;7.05;;;3.95;;
10387;SDS011;5240;51.128;4.566;2023-04-15T00:36:44;6.78;;;3.60;;
10387;SDS011;5240;51.128;4.566;2023-04-15T00:39:11;8.98;;;4.00;;
10387;SDS011;5240;51.128;4.566;2023-04-15T00:41:39;8.45;;;3.80;;
10387;SDS011;5240;51.128;4.566;2023-04-15T00:44:07;6.40;;;3.72;;
10387;SDS011;5240;51.128;4.566;2023-04-15T00:46:35;8.27;;;4.03;;
10387;SDS011;5240;51.128;4.566;2023-04-15T00:49:03;5.97;;;3.67;;
10387;SDS011;5240;51.128;4.566;2023-04-15T00:51:31;7.15;;;4.15;;
10387;SDS011;5240;51.128;4.566;2023-04-15T00:54:00;10.18;;;4.70;;
10387;SDS011;5240;51.128;4.566;2023-04-15T00:56:28;8.45;;;4.65;;
10387;SDS011;5240;51.128;4.566;2023-04-15T00:58:57;7.03;;;4.13;;
10387;SDS011;5240;51.128;4.566;2023-04-15T01:01:25;7.35;;;4.47;;
10387;SDS011;5240;51.128;4.566;2023-04-15T01:03:54;8.32;;;4.40;;
10387;SDS011;5240;51.128;4.566;2023-04-15T01:06:22;7.05;;;4.18;;
10387;SDS011;5240;51.128;4.566;2023-04-15T01:08:51;7.45;;;4.40;;
10387;SDS011;5240;51.128;4.566;2023-04-15T01:11:19;7.93;;;4.22;;
10387;SDS011;5240;51.128;4.566;2023-04-15T01:13:46;6.13;;;4.30;;
10387;SDS011;5240;51.128;4.566;2023-04-15T01:16:15;6.20;;;4.20;;
10387;SDS011;5240;51.128;4.566;2023-04-15T01:18:42;8.82;;;4.40;;
10387;SDS011;5240;51.128;4.566;2023-04-15T01:21:10;8.02;;;4.50;;
10387;SDS011;5240;51.128;4.566;2023-04-15T01:23:37;10.45;;;4.70;;
10387;SDS011;5240;51.128;4.566;2023-04-15T01:26:06;9.43;;;4.22;;
10387;SDS011;5240;51.128;4.566;2023-04-15T01:28:34;7.20;;;4.13;;
10387;SDS011;5240;51.128;4.566;2023-04-15T01:31:08;7.30;;;4.35;;
10387;SDS011;5240;51.128;4.566;2023-04-15T01:33:36;8.77;;;4.63;;
10387;SDS011;5240;51.128;4.566;2023-04-15T01:36:04;10.93;;;4.70;;
10387;SDS011;5240;51.128;4.566;2023-04-15T01:38:34;8.70;;;4.65;;
10387;SDS011;5240;51.128;4.566;2023-04-15T01:41:01;6.88;;;3.95;;
10387;SDS011;5240;51.128;4.566;2023-04-15T01:43:30;7.18;;;4.28;;
10387;SDS011;5240;51.128;4.566;2023-04-15T01:45:57;7.55;;;4.50;;
10387;SDS011;5240;51.128;4.566;2023-04-15T01:48:24;8.20;;;4.57;;
10387;SDS011;5240;51.128;4.566;2023-04-15T01:50:51;8.68;;;4.35;;
10387;SDS011;5240;51.128;4.566;2023-04-15T01:53:21;6.25;;;4.35;;
10387;SDS011;5240;51.128;4.566;2023-04-15T01:55:48;7.43;;;4.03;;
10387;SDS011;5240;51.128;4.566;2023-04-15T01:58:16;5.30;;;4.20;;
10387;SDS011;5240;51.128;4.566;2023-04-15T02:00:44;11.80;;;5.15;;
10387;SDS011;5240;51.128;4.566;2023-04-15T02:03:11;8.75;;;4.50;;
10387;SDS011;5240;51.128;4.566;2023-04-15T02:05:38;7.28;;;4.18;;
10387;SDS011;5240;51.128;4.566;2023-04-15T02:08:05;7.72;;;4.93;;
10387;SDS011;5240;51.128;4.566;2023-04-15T02:10:32;6.80;;;4.78;;
10387;SDS011;5240;51.128;4.566;2023-04-15T02:12:59;7.53;;;5.00;;
10387;SDS011;5240;51.128;4.566;2023-04-15T02:15:26;8.73;;;4.88;;
10387;SDS011;5240;51.128;4.566;2023-04-15T02:17:55;7.80;;;4.78;;
10387;SDS011;5240;51.128;4.566;2023-04-15T02:20:23;7.68;;;4.85;;
10387;SDS011;5240;51.128;4.566;2023-04-15T02:22:50;11.80;;;5.03;;
10387;SDS011;5240;51.128;4.566;2023-04-15T02:25:17;7.00;;;4.43;;
10387;SDS011;5240;51.128;4.566;2023-04-15T02:27:44;7.75;;;4.68;;
10387;SDS011;5240;51.128;4.566;2023-04-15T02:30:11;6.82;;;4.57;;
10387;SDS011;5240;51.128;4.566;2023-04-15T02:32:39;8.93;;;4.50;;
10387;SDS011;5240;51.128;4.566;2023-04-15T02:35:10;6.68;;;4.82;;
10387;SDS011;5240;51.128;4.566;2023-04-15T02:37:37;8.38;;;5.22;;
10387;SDS011;5240;51.128;4.566;2023-04-15T02:40:07;8.88;;;4.70;;
10387;SDS011;5240;51.128;4.566;2023-04-15T02:42:36;10.30;;;4.82;;
10387;SDS011;5240;51.128;4.566;2023-04-15T02:45:04;6.88;;;4.60;;
10387;SDS011;5240;51.128;4.566;2023-04-15T02:47:32;6.82;;;4.05;;
10387;SDS011;5240;51.128;4.566;2023-04-15T02:50:00;5.93;;;4.00;;
10387;SDS011;5240;51.128;4.566;2023-04-15T02:52:29;6.90;;;4.22;;
10387;SDS011;5240;51.128;4.566;2023-04-15T02:54:56;8.07;;;5.07;;
10387;SDS011;5240;51.128;4.566;2023-04-15T02:57:25;7.40;;;4.40;;
10387;SDS011;5240;51.128;4.566;2023-04-15T02:59:53;6.90;;;4.28;;
10387;SDS011;5240;51.128;4.566;2023-04-15T03:02:20;6.93;;;4.53;;
10387;SDS011;5240;51.128;4.566;2023-04-15T03:04:47;9.48;;;4.60;;
10387;SDS011;5240;51.128;4.566;2023-04-15T03:07:14;7.03;;;4.30;;
10387;SDS011;5240;51.128;4.566;2023-04-15T03:09:44;10.15;;;4.60;;
10387;SDS011;5240;51.128;4.566;2023-04-15T03:12:11;8.07;;;4.57;;
10387;SDS011;5240;51.128;4.566;2023-04-15T03:14:38;7.50;;;4.63;;
10387;SDS011;5240;51.128;4.566;2023-04-15T03:17:05;7.60;;;4.50;;
10387;SDS011;5240;51.128;4.566;2023-04-15T03:19:33;7.93;;;4.78;;
10387;SDS011;5240;51.128;4.566;2023-04-15T03:22:00;7.38;;;4.00;;
10387;SDS011;5240;51.128;4.566;2023-04-15T03:24:27;6.32;;;4.40;;
10387;SDS011;5240;51.128;4.566;2023-04-15T03:26:55;12.38;;;7.32;;
10387;SDS011;5240;51.128;4.566;2023-04-15T03:29:23;9.95;;;4.57;;
10387;SDS011;5240;51.128;4.566;2023-04-15T03:31:50;6.85;;;4.65;;
10387;SDS011;5240;51.128;4.566;2023-04-15T03:34:18;7.45;;;4.40;;
10387;SDS011;5240;51.128;4.566;2023-04-15T03:36:45;7.05;;;4.25;;
10387;SDS011;5240;51.128;4.566;2023-04-15T03:39:12;8.52;;;4.80;;
10387;SDS011;5240;51.128;4.566;2023-04-15T03:41:39;9.57;;;4.57;;
10387;SDS011;5240;51.128;4.566;2023-04-15T03:44:07;6.22;;;4.15;;
10387;SDS011;5240;51.128;4.566;2023-04-15T03:46:34;8.60;;;4.53;;
10387;SDS011;5240;51.128;4.566;2023-04-15T03:49:01;9.52;;;4.70;;
10387;SDS011;5240;51.128;4.566;2023-04-15T03:51:29;9.07;;;5.03;;
10387;SDS011;5240;51.128;4.566;2023-04-15T03:53:56;8.02;;;4.72;;
10387;SDS011;5240;51.128;4.566;2023-04-15T03:56:23;8.13;;;4.10;;
10387;SDS011;5240;51.128;4.566;2023-04-15T03:58:51;6.93;;;4.50;;
10387;SDS011;5240;51.128;4.566;2023-04-15T04:01:19;8.55;;;4.65;;
10387;SDS011;5240;51.128;4.566;2023-04-15T04:03:46;7.32;;;4.40;;
10387;SDS011;5240;51.128;4.566;2023-04-15T04:06:13;7.22;;;4.30;;
10387;SDS011;5240;51.128;4.566;2023-04-15T04:08:41;9.02;;;4.60;;
10387;SDS011;5240;51.128;4.566;2023-04-15T04:11:08;5.85;;;4.55;;
10387;SDS011;5240;51.128;4.566;2023-04-15T04:13:35;7.75;;;4.57;;
10387;SDS011;5240;51.128;4.566;2023-04-15T04:16:02;12.05;;;4.97;;
10387;SDS011;5240;51.128;4.566;2023-04-15T04:18:30;7.10;;;4.32;;
10387;SDS011;5240;51.128;4.566;2023-04-15T04:20:57;9.57;;;5.65;;
10387;SDS011;5240;51.128;4.566;2023-04-15T04:23:25;7.88;;;4.57;;
10387;SDS011;5240;51.128;4.566;2023-04-15T04:25:52;8.48;;;4.97;;
10387;SDS011;5240;51.128;4.566;2023-04-15T04:28:19;6.40;;;4.97;;
10387;SDS011;5240;51.128;4.566;2023-04-15T04:30:46;7.78;;;4.85;;
10387;SDS011;5240;51.128;4.566;2023-04-15T04:33:13;9.80;;;5.10;;
10387;SDS011;5240;51.128;4.566;2023-04-15T04:35:41;7.40;;;4.85;;
10387;SDS011;5240;51.128;4.566;2023-04-15T04:38:08;8.27;;;5.80;;
10387;SDS011;5240;51.128;4.566;2023-04-15T04:40:35;9.93;;;5.57;;
10387;SDS011;5240;51.128;4.566;2023-04-15T04:43:02;8.82;;;5.22;;
10387;SDS011;5240;51.128;4.566;2023-04-15T04:45:30;8.00;;;5.00;;
10387;SDS011;5240;51.128;4.566;2023-04-15T04:47:57;12.00;;;5.70;;
10387;SDS011;5240;51.128;4.566;2023-04-15T04:50:24;9.63;;;5.90;;
10387;SDS011;5240;51.128;4.566;2023-04-15T04:52:52;8.93;;;5.25;;
10387;SDS011;5240;51.128;4.566;2023-04-15T04:55:19;7.60;;;5.03;;
10387;SDS011;5240;51.128;4.566;2023-04-15T04:57:46;7.13;;;5.18;;
10387;SDS011;5240;51.128;4.566;2023-04-15T05:00:13;10.20;;;5.43;;
10387;SDS011;5240;51.128;4.566;2023-04-15T05:02:41;10.23;;;5.72;;
10387;SDS011;5240;51.128;4.566;2023-04-15T05:05:08;8.68;;;5.80;;
10387;SDS011;5240;51.128;4.566;2023-04-15T05:07:37;10.35;;;6.18;;
10387;SDS011;5240;51.128;4.566;2023-04-15T05:10:07;10.38;;;6.30;;
10387;SDS011;5240;51.128;4.566;2023-04-15T05:12:34;8.68;;;5.82;;
10387;SDS011;5240;51.128;4.566;2023-04-15T05:15:02;7.75;;;5.60;;
10387;SDS011;5240;51.128;4.566;2023-04-15T05:17:30;10.95;;;5.68;;
10387;SDS011;5240;51.128;4.566;2023-04-15T05:19:59;9.32;;;6.05;;
10387;SDS011;5240;51.128;4.566;2023-04-15T05:22:26;9.13;;;5.75;;
10387;SDS011;5240;51.128;4.566;2023-04-15T05:24:53;10.40;;;6.22;;
10387;SDS011;5240;51.128;4.566;2023-04-15T05:27:21;9.20;;;5.45;;
10387;SDS011;5240;51.128;4.566;2023-04-15T05:29:49;10.95;;;6.38;;
10387;SDS011;5240;51.128;4.566;2023-04-15T05:32:16;8.32;;;5.55;;
10387;SDS011;5240;51.128;4.566;2023-04-15T05:34:43;10.35;;;6.50;;
10387;SDS011;5240;51.128;4.566;2023-04-15T05:37:10;8.27;;;6.47;;
10387;SDS011;5240;51.128;4.566;2023-04-15T05:39:37;10.18;;;6.30;;
10387;SDS011;5240;51.128;4.566;2023-04-15T05:42:04;11.93;;;6.40;;
10387;SDS011;5240;51.128;4.566;2023-04-15T05:44:33;10.60;;;6.38;;
10387;SDS011;5240;51.128;4.566;2023-04-15T05:47:00;12.77;;;6.32;;
10387;SDS011;5240;51.128;4.566;2023-04-15T05:49:27;9.77;;;6.47;;
10387;SDS011;5240;51.128;4.566;2023-04-15T05:51:54;14.68;;;7.03;;
10387;SDS011;5240;51.128;4.566;2023-04-15T05:54:21;11.32;;;6.22;;
10387;SDS011;5240;51.128;4.566;2023-04-15T05:56:49;12.52;;;7.47;;
10387;SDS011;5240;51.128;4.566;2023-04-15T05:59:16;10.13;;;7.00;;
10387;SDS011;5240;51.128;4.566;2023-04-15T06:01:44;10.70;;;7.07;;
10387;SDS011;5240;51.128;4.566;2023-04-15T06:04:11;14.35;;;8.05;;
10387;SDS011;5240;51.128;4.566;2023-04-15T06:06:38;14.10;;;8.32;;
10387;SDS011;5240;51.128;4.566;2023-04-15T06:09:08;10.20;;;8.15;;
10387;SDS011;5240;51.128;4.566;2023-04-15T06:11:35;12.13;;;8.18;;
10387;SDS011;5240;51.128;4.566;2023-04-15T06:14:03;12.80;;;8.38;;
10387;SDS011;5240;51.128;4.566;2023-04-15T06:16:30;11.02;;;7.72;;
10387;SDS011;5240;51.128;4.566;2023-04-15T06:18:58;13.05;;;8.75;;
10387;SDS011;5240;51.128;4.566;2023-04-15T06:21:25;12.10;;;8.80;;
10387;SDS011;5240;51.128;4.566;2023-04-15T06:23:52;16.20;;;8.77;;
10387;SDS011;5240;51.128;4.566;2023-04-15T06:26:20;12.98;;;8.98;;
10387;SDS011;5240;51.128;4.566;2023-04-15T06:28:47;14.18;;;9.23;;
10387;SDS011;5240;51.128;4.566;2023-04-15T06:31:14;14.55;;;9.00;;
10387;SDS011;5240;51.128;4.566;2023-04-15T06:33:41;13.82;;;9.57;;
10387;SDS011;5240;51.128;4.566;2023-04-15T06:36:10;12.13;;;9.43;;
10387;SDS011;5240;51.128;4.566;2023-04-15T06:38:37;13.90;;;9.63;;
10387;SDS011;5240;51.128;4.566;2023-04-15T06:41:04;12.45;;;11.15;;
10387;SDS011;5240;51.128;4.566;2023-04-15T06:43:31;13.60;;;10.48;;
10387;SDS011;5240;51.128;4.566;2023-04-15T06:45:59;13.25;;;10.60;;
10387;SDS011;5240;51.128;4.566;2023-04-15T06:48:26;15.75;;;10.95;;
10387;SDS011;5240;51.128;4.566;2023-04-15T06:50:53;15.18;;;11.00;;
10387;SDS011;5240;51.128;4.566;2023-04-15T06:53:23;14.80;;;10.90;;
10387;SDS011;5240;51.128;4.566;2023-04-15T06:55:51;17.38;;;11.68;;
10387;SDS011;5240;51.128;4.566;2023-04-15T06:58:18;15.05;;;11.35;;
10387;SDS011;5240;51.128;4.566;2023-04-15T07:00:45;12.93;;;10.85;;
10387;SDS011;5240;51.128;4.566;2023-04-15T07:03:12;17.95;;;11.50;;
10387;SDS011;5240;51.128;4.566;2023-04-15T07:05:39;15.23;;;11.75;;
10387;SDS011;5240;51.128;4.566;2023-04-15T07:08:06;16.95;;;11.63;;
10387;SDS011;5240;51.128;4.566;2023-04-15T07:10:35;15.00;;;11.20;;
10387;SDS011;5240;51.128;4.566;2023-04-15T07:13:02;15.13;;;11.63;;
10387;SDS011;5240;51.128;4.566;2023-04-15T07:15:31;15.48;;;11.18;;
10387;SDS011;5240;51.128;4.566;2023-04-15T07:17:58;14.13;;;11.05;;
10387;SDS011;5240;51.128;4.566;2023-04-15T07:20:25;14.15;;;10.90;;
10387;SDS011;5240;51.128;4.566;2023-04-15T07:22:52;14.00;;;9.80;;
10387;SDS011;5240;51.128;4.566;2023-04-15T07:25:19;12.10;;;10.02;;
10387;SDS011;5240;51.128;4.566;2023-04-15T07:27:47;13.32;;;9.15;;
10387;SDS011;5240;51.128;4.566;2023-04-15T07:30:14;11.40;;;8.52;;
10387;SDS011;5240;51.128;4.566;2023-04-15T07:32:42;9.88;;;8.02;;
10387;SDS011;5240;51.128;4.566;2023-04-15T07:35:09;17.08;;;8.18;;
10387;SDS011;5240;51.128;4.566;2023-04-15T07:37:36;12.35;;;8.20;;
10387;SDS011;5240;51.128;4.566;2023-04-15T07:40:03;12.30;;;8.05;;
10387;SDS011;5240;51.128;4.566;2023-04-15T07:42:31;8.40;;;7.30;;
10387;SDS011;5240;51.128;4.566;2023-04-15T07:45:00;10.73;;;8.20;;
10387;SDS011;5240;51.128;4.566;2023-04-15T07:47:27;9.70;;;8.35;;
10387;SDS011;5240;51.128;4.566;2023-04-15T07:49:54;10.13;;;8.13;;
10387;SDS011;5240;51.128;4.566;2023-04-15T07:52:21;9.77;;;8.02;;
10387;SDS011;5240;51.128;4.566;2023-04-15T07:54:48;10.23;;;7.57;;
10387;SDS011;5240;51.128;4.566;2023-04-15T07:57:15;12.90;;;8.20;;
10387;SDS011;5240;51.128;4.566;2023-04-15T07:59:43;11.45;;;7.38;;
10387;SDS011;5240;51.128;4.566;2023-04-15T08:02:11;10.63;;;7.97;;
10387;SDS011;5240;51.128;4.566;2023-04-15T08:04:38;13.23;;;8.20;;
10387;SDS011;5240;51.128;4.566;2023-04-15T08:07:05;11.30;;;6.95;;
10387;SDS011;5240;51.128;4.566;2023-04-15T08:09:32;9.40;;;7.18;;
10387;SDS011;5240;51.128;4.566;2023-04-15T08:11:59;12.25;;;7.22;;
10387;SDS011;5240;51.128;4.566;2023-04-15T08:14:26;12.60;;;7.45;;
10387;SDS011;5240;51.128;4.566;2023-04-15T08:16:54;9.00;;;6.65;;
10387;SDS011;5240;51.128;4.566;2023-04-15T08:19:22;12.07;;;7.47;;
10387;SDS011;5240;51.128;4.566;2023-04-15T08:21:50;8.43;;;7.00;;
10387;SDS011;5240;51.128;4.566;2023-04-15T08:24:17;10.43;;;7.10;;
10387;SDS011;5240;51.128;4.566;2023-04-15T08:26:45;10.43;;;7.20;;
10387;SDS011;5240;51.128;4.566;2023-04-15T08:29:12;8.88;;;6.97;;
10387;SDS011;5240;51.128;4.566;2023-04-15T08:31:39;8.70;;;6.95;;
10387;SDS011;5240;51.128;4.566;2023-04-15T08:34:06;9.23;;;6.88;;
10387;SDS011;5240;51.128;4.566;2023-04-15T08:36:35;8.52;;;6.90;;
10387;SDS011;5240;51.128;4.566;2023-04-15T08:39:02;10.07;;;6.78;;
10387;SDS011;5240;51.128;4.566;2023-04-15T08:41:31;7.43;;;6.47;;
10387;SDS011;5240;51.128;4.566;2023-04-15T08:44:05;7.63;;;6.63;;
10387;SDS011;5240;51.128;4.566;2023-04-15T08:46:32;8.77;;;6.40;;
10387;SDS011;5240;51.128;4.566;2023-04-15T08:49:00;11.52;;;6.65;;
10387;SDS011;5240;51.128;4.566;2023-04-15T08:51:30;5.82;;;5.32;;
10387;SDS011;5240;51.128;4.566;2023-04-15T08:53:59;6.03;;;5.43;;
10387;SDS011;5240;51.128;4.566;2023-04-15T08:56:26;5.95;;;5.35;;
10387;SDS011;5240;51.128;4.566;2023-04-15T08:58:57;9.73;;;5.38;;
10387;SDS011;5240;51.128;4.566;2023-04-15T09:01:24;6.65;;;4.60;;
10387;SDS011;5240;51.128;4.566;2023-04-15T09:03:52;6.95;;;4.88;;
10387;SDS011;5240;51.128;4.566;2023-04-15T09:06:23;5.82;;;5.10;;
10387;SDS011;5240;51.128;4.566;2023-04-15T09:08:51;6.65;;;4.60;;
10387;SDS011;5240;51.128;4.566;2023-04-15T09:11:23;5.70;;;4.95;;
10387;SDS011;5240;51.128;4.566;2023-04-15T09:13:51;7.57;;;5.20;;
10387;SDS011;5240;51.128;4.566;2023-04-15T09:16:19;6.40;;;4.78;;
10387;SDS011;5240;51.128;4.566;2023-04-15T09:18:46;4.80;;;4.35;;
10387;SDS011;5240;51.128;4.566;2023-04-15T09:21:14;6.53;;;5.20;;
10387;SDS011;5240;51.128;4.566;2023-04-15T09:23:53;6.85;;;5.60;;
10387;SDS011;5240;51.128;4.566;2023-04-15T09:26:30;6.28;;;4.28;;
10387;SDS011;5240;51.128;4.566;2023-04-15T09:29:03;7.65;;;4.30;;
10387;SDS011;5240;51.128;4.566;2023-04-15T09:31:31;5.13;;;4.20;;
10387;SDS011;5240;51.128;4.566;2023-04-15T09:33:59;5.40;;;4.13;;
10387;SDS011;5240;51.128;4.566;2023-04-15T09:36:26;7.97;;;4.30;;
10387;SDS011;5240;51.128;4.566;2023-04-15T09:38:54;5.20;;;4.13;;
10387;SDS011;5240;51.128;4.566;2023-04-15T09:41:22;6.07;;;3.97;;
10387;SDS011;5240;51.128;4.566;2023-04-15T09:43:52;7.47;;;4.30;;
10387;SDS011;5240;51.128;4.566;2023-04-15T09:46:19;4.65;;;3.88;;
10387;SDS011;5240;51.128;4.566;2023-04-15T09:48:46;4.97;;;3.72;;
10387;SDS011;5240;51.128;4.566;2023-04-15T09:51:33;9.75;;;3.83;;
10387;SDS011;5240;51.128;4.566;2023-04-15T09:54:01;4.65;;;4.15;;
10387;SDS011;5240;51.128;4.566;2023-04-15T09:56:31;5.25;;;4.50;;
10387;SDS011;5240;51.128;4.566;2023-04-15T09:59:01;4.85;;;4.30;;
10387;SDS011;5240;51.128;4.566;2023-04-15T10:01:28;4.95;;;4.15;;
10387;SDS011;5240;51.128;4.566;2023-04-15T10:03:56;5.65;;;3.88;;
10387;SDS011;5240;51.128;4.566;2023-04-15T10:06:27;5.47;;;4.50;;
10387;SDS011;5240;51.128;4.566;2023-04-15T10:08:54;5.40;;;4.80;;
10387;SDS011;5240;51.128;4.566;2023-04-15T10:11:23;4.95;;;4.47;;
10387;SDS011;5240;51.128;4.566;2023-04-15T10:13:53;6.97;;;5.43;;
10387;SDS011;5240;51.128;4.566;2023-04-15T10:16:25;6.38;;;4.35;;
10387;SDS011;5240;51.128;4.566;2023-04-15T10:18:54;4.85;;;4.00;;
10387;SDS011;5240;51.128;4.566;2023-04-15T10:21:22;6.00;;;4.20;;
10387;SDS011;5240;51.128;4.566;2023-04-15T10:23:50;4.22;;;3.83;;
10387;SDS011;5240;51.128;4.566;2023-04-15T10:26:17;3.67;;;3.38;;
10387;SDS011;5240;51.128;4.566;2023-04-15T10:28:44;3.90;;;3.28;;
10387;SDS011;5240;51.128;4.566;2023-04-15T10:31:13;3.78;;;3.42;;
10387;SDS011;5240;51.128;4.566;2023-04-15T10:33:42;6.00;;;4.38;;
10387;SDS011;5240;51.128;4.566;2023-04-15T10:36:11;4.38;;;4.00;;
10387;SDS011;5240;51.128;4.566;2023-04-15T10:38:40;5.70;;;3.80;;
10387;SDS011;5240;51.128;4.566;2023-04-15T10:41:19;4.68;;;4.22;;
10387;SDS011;5240;51.128;4.566;2023-04-15T10:43:53;5.22;;;4.55;;
10387;SDS011;5240;51.128;4.566;2023-04-15T10:46:22;5.15;;;4.47;;
10387;SDS011;5240;51.128;4.566;2023-04-15T10:49:05;5.30;;;4.82;;
10387;SDS011;5240;51.128;4.566;2023-04-15T10:51:34;5.43;;;4.93;;
10387;SDS011;5240;51.128;4.566;2023-04-15T10:54:07;5.45;;;4.40;;
10387;SDS011;5240;51.128;4.566;2023-04-15T10:56:40;5.65;;;3.70;;
10387;SDS011;5240;51.128;4.566;2023-04-15T10:59:08;4.35;;;3.75;;
10387;SDS011;5240;51.128;4.566;2023-04-15T11:01:50;4.40;;;3.88;;
10387;SDS011;5240;51.128;4.566;2023-04-15T11:07:34;5.93;;;4.15;;
10387;SDS011;5240;51.128;4.566;2023-04-15T11:10:02;4.38;;;3.83;;
10387;SDS011;5240;51.128;4.566;2023-04-15T11:12:34;4.13;;;3.72;;
10387;SDS011;5240;51.128;4.566;2023-04-15T11:17:54;4.50;;;3.72;;
10387;SDS011;5240;51.128;4.566;2023-04-15T11:20:23;7.53;;;3.90;;
10387;SDS011;5240;51.128;4.566;2023-04-15T11:22:52;4.07;;;3.13;;
10387;SDS011;5240;51.128;4.566;2023-04-15T11:25:22;3.30;;;3.00;;
10387;SDS011;5240;51.128;4.566;2023-04-15T11:27:50;3.83;;;3.00;;
10387;SDS011;5240;51.128;4.566;2023-04-15T11:30:19;4.10;;;3.47;;
10387;SDS011;5240;51.128;4.566;2023-04-15T11:32:47;4.38;;;3.40;;
10387;SDS011;5240;51.128;4.566;2023-04-15T11:35:15;4.50;;;3.45;;
10387;SDS011;5240;51.128;4.566;2023-04-15T11:37:43;4.45;;;3.53;;
10387;SDS011;5240;51.128;4.566;2023-04-15T11:40:12;3.40;;;3.08;;
10387;SDS011;5240;51.128;4.566;2023-04-15T11:42:41;3.70;;;3.10;;
10387;SDS011;5240;51.128;4.566;2023-04-15T11:45:10;3.33;;;3.00;;
10387;SDS011;5240;51.128;4.566;2023-04-15T11:47:38;4.85;;;3.05;;
10387;SDS011;5240;51.128;4.566;2023-04-15T11:50:13;3.30;;;2.53;;
10387;SDS011;5240;51.128;4.566;2023-04-15T11:52:52;3.30;;;3.00;;
10387;SDS011;5240;51.128;4.566;2023-04-15T11:55:19;5.07;;;3.30;;
10387;SDS011;5240;51.128;4.566;2023-04-15T11:57:48;3.30;;;3.00;;
10387;SDS011;5240;51.128;4.566;2023-04-15T12:00:15;3.85;;;3.17;;
10387;SDS011;5240;51.128;4.566;2023-04-15T12:02:42;6.10;;;3.83;;
10387;SDS011;5240;51.128;4.566;2023-04-15T12:05:10;4.70;;;3.65;;
10387;SDS011;5240;51.128;4.566;2023-04-15T12:10:33;5.75;;;2.90;;
10387;SDS011;5240;51.128;4.566;2023-04-15T12:13:00;3.30;;;2.53;;
10387;SDS011;5240;51.128;4.566;2023-04-15T12:15:36;4.53;;;2.85;;
10387;SDS011;5240;51.128;4.566;2023-04-15T12:18:03;3.30;;;2.80;;
10387;SDS011;5240;51.128;4.566;2023-04-15T12:20:30;4.30;;;3.40;;
10387;SDS011;5240;51.128;4.566;2023-04-15T12:23:04;3.33;;;2.97;;
10387;SDS011;5240;51.128;4.566;2023-04-15T12:25:33;4.47;;;2.80;;
10387;SDS011;5240;51.128;4.566;2023-04-15T12:28:00;4.72;;;3.20;;
10387;SDS011;5240;51.128;4.566;2023-04-15T12:30:27;4.28;;;3.10;;
10387;SDS011;5240;51.128;4.566;2023-04-15T12:32:55;4.43;;;2.90;;
10387;SDS011;5240;51.128;4.566;2023-04-15T12:35:23;3.50;;;3.00;;
10387;SDS011;5240;51.128;4.566;2023-04-15T12:37:50;4.88;;;3.30;;
10387;SDS011;5240;51.128;4.566;2023-04-15T12:40:20;4.65;;;3.00;;
10387;SDS011;5240;51.128;4.566;2023-04-15T12:42:47;4.15;;;3.20;;
10387;SDS011;5240;51.128;4.566;2023-04-15T12:45:14;2.83;;;2.30;;
10387;SDS011;5240;51.128;4.566;2023-04-15T12:47:40;4.78;;;3.03;;
10387;SDS011;5240;51.128;4.566;2023-04-15T12:50:08;3.75;;;3.00;;
10387;SDS011;5240;51.128;4.566;2023-04-15T12:52:34;3.17;;;2.88;;
10387;SDS011;5240;51.128;4.566;2023-04-15T12:55:01;4.50;;;2.78;;
10387;SDS011;5240;51.128;4.566;2023-04-15T12:57:30;3.55;;;2.83;;
10387;SDS011;5240;51.128;4.566;2023-04-15T12:59:57;3.85;;;2.65;;
10387;SDS011;5240;51.128;4.566;2023-04-15T13:02:24;4.05;;;2.95;;
10387;SDS011;5240;51.128;4.566;2023-04-15T13:04:52;4.82;;;3.20;;
10387;SDS011;5240;51.128;4.566;2023-04-15T13:07:19;4.15;;;2.20;;
10387;SDS011;5240;51.128;4.566;2023-04-15T13:09:46;7.03;;;2.90;;
10387;SDS011;5240;51.128;4.566;2023-04-15T13:12:13;3.28;;;2.10;;
10387;SDS011;5240;51.128;4.566;2023-04-15T13:14:42;6.13;;;2.40;;
10387;SDS011;5240;51.128;4.566;2023-04-15T13:17:09;4.32;;;2.80;;
10387;SDS011;5240;51.128;4.566;2023-04-15T13:19:36;3.97;;;2.60;;
10387;SDS011;5240;51.128;4.566;2023-04-15T13:22:03;3.38;;;2.20;;
10387;SDS011;5240;51.128;4.566;2023-04-15T13:24:32;5.15;;;2.40;;
10387;SDS011;5240;51.128;4.566;2023-04-15T13:26:59;3.55;;;2.53;;
10387;SDS011;5240;51.128;4.566;2023-04-15T13:29:26;3.42;;;2.28;;
10387;SDS011;5240;51.128;4.566;2023-04-15T13:31:54;2.03;;;1.90;;
10387;SDS011;5240;51.128;4.566;2023-04-15T13:34:22;3.17;;;2.00;;
10387;SDS011;5240;51.128;4.566;2023-04-15T13:36:49;2.75;;;1.80;;
10387;SDS011;5240;51.128;4.566;2023-04-15T13:39:16;1.75;;;1.60;;
10387;SDS011;5240;51.128;4.566;2023-04-15T13:41:43;1.77;;;1.38;;
10387;SDS011;5240;51.128;4.566;2023-04-15T13:44:10;2.42;;;1.50;;
10387;SDS011;5240;51.128;4.566;2023-04-15T13:46:37;1.80;;;1.60;;
10387;SDS011;5240;51.128;4.566;2023-04-15T13:49:07;2.55;;;1.60;;
10387;SDS011;5240;51.128;4.566;2023-04-15T13:51:34;3.15;;;1.77;;
10387;SDS011;5240;51.128;4.566;2023-04-15T13:54:01;4.20;;;1.92;;
10387;SDS011;5240;51.128;4.566;2023-04-15T13:56:28;2.17;;;1.88;;
10387;SDS011;5240;51.128;4.566;2023-04-15T13:58:55;4.18;;;2.10;;
10387;SDS011;5240;51.128;4.566;2023-04-15T14:01:23;3.63;;;2.15;;
10387;SDS011;5240;51.128;4.566;2023-04-15T14:03:51;5.35;;;3.15;;
10387;SDS011;5240;51.128;4.566;2023-04-15T14:06:19;4.13;;;2.00;;
10387;SDS011;5240;51.128;4.566;2023-04-15T14:08:46;3.25;;;2.63;;
10387;SDS011;5240;51.128;4.566;2023-04-15T14:11:13;4.78;;;2.85;;
10387;SDS011;5240;51.128;4.566;2023-04-15T14:13:40;3.58;;;2.65;;
10387;SDS011;5240;51.128;4.566;2023-04-15T14:16:07;2.85;;;2.22;;
10387;SDS011;5240;51.128;4.566;2023-04-15T14:18:34;3.42;;;2.33;;
10387;SDS011;5240;51.128;4.566;2023-04-15T14:21:02;6.47;;;2.63;;
10387;SDS011;5240;51.128;4.566;2023-04-15T14:23:32;2.60;;;2.40;;
10387;SDS011;5240;51.128;4.566;2023-04-15T14:25:59;2.85;;;2.58;;
10387;SDS011;5240;51.128;4.566;2023-04-15T14:28:26;4.10;;;2.80;;
10387;SDS011;5240;51.128;4.566;2023-04-15T14:30:53;3.65;;;2.50;;
10387;SDS011;5240;51.128;4.566;2023-04-15T14:33:20;3.05;;;2.15;;
10387;SDS011;5240;51.128;4.566;2023-04-15T14:35:48;4.30;;;2.83;;
10387;SDS011;5240;51.128;4.566;2023-04-15T14:38:17;6.82;;;3.13;;
10387;SDS011;5240;51.128;4.566;2023-04-15T14:40:48;4.72;;;2.80;;
10387;SDS011;5240;51.128;4.566;2023-04-15T14:43:15;3.22;;;2.83;;
10387;SDS011;5240;51.128;4.566;2023-04-15T14:45:42;3.08;;;2.70;;
10387;SDS011;5240;51.128;4.566;2023-04-15T14:48:09;4.43;;;2.80;;
10387;SDS011;5240;51.128;4.566;2023-04-15T14:50:36;4.80;;;3.10;;
10387;SDS011;5240;51.128;4.566;2023-04-15T14:53:03;4.30;;;2.70;;
10387;SDS011;5240;51.128;4.566;2023-04-15T14:55:30;4.57;;;2.70;;
10387;SDS011;5240;51.128;4.566;2023-04-15T14:57:59;4.35;;;2.60;;
10387;SDS011;5240;51.128;4.566;2023-04-15T15:00:26;3.20;;;2.80;;
10387;SDS011;5240;51.128;4.566;2023-04-15T15:02:53;4.63;;;2.83;;
10387;SDS011;5240;51.128;4.566;2023-04-15T15:05:20;4.90;;;2.88;;
10387;SDS011;5240;51.128;4.566;2023-04-15T15:07:47;5.05;;;2.90;;
10387;SDS011;5240;51.128;4.566;2023-04-15T15:10:15;4.13;;;2.92;;
10387;SDS011;5240;51.128;4.566;2023-04-15T15:12:42;3.20;;;2.80;;